createdAt,value
2023-04-08T00:00:55.587Z,203.54
2023-04-08T00:01:55.566Z,204.41
2023-04-08T00:02:55.679Z,200.82
2023-04-08T00:03:55.874Z,204.47
2023-04-08T00:04:55.767Z,197.54
2023-04-08T00:05:55.699Z,206.42
2023-04-08T00:06:55.747Z,203.54
2023-04-08T00:07:55.825Z,203.98
2023-04-08T00:08:55.879Z,206.27
2023-04-08T00:09:55.880Z,206.82
2023-04-08T00:10:56.000Z,201.35
2023-04-08T00:11:56.044Z,201.30
2023-04-08T00:12:56.066Z,208.16
2023-04-08T00:13:56.100Z,206.37
2023-04-08T00:14:56.175Z,206.49
2023-04-08T00:15:56.213Z,205.00
2023-04-08T00:16:56.351Z,207.70
2023-04-08T00:17:56.426Z,203.04
2023-04-08T00:18:56.416Z,203.78
2023-04-08T00:19:56.455Z,205.36
2023-04-08T00:20:56.531Z,203.98
2023-04-08T00:21:56.577Z,205.49
2023-04-08T00:22:56.739Z,209.97
2023-04-08T00:23:56.674Z,206.75
2023-04-08T00:24:56.745Z,205.93
2023-04-08T00:25:56.816Z,206.29
2023-04-08T00:26:56.871Z,205.28
2023-04-08T00:27:56.907Z,205.71
2023-04-08T00:28:57.043Z,202.64
2023-04-08T00:29:56.988Z,205.11
2023-04-08T00:30:57.088Z,208.15
2023-04-08T00:31:57.119Z,204.17
2023-04-08T00:32:57.281Z,204.57
2023-04-08T00:33:57.228Z,203.35
2023-04-08T00:34:57.264Z,205.09
2023-04-08T00:35:57.382Z,203.25
2023-04-08T00:36:57.372Z,202.93
2023-04-08T00:37:57.447Z,202.62
2023-04-08T00:38:57.516Z,202.56
2023-04-08T00:39:57.595Z,200.38
2023-04-08T00:40:57.602Z,204.32
2023-04-08T00:41:57.683Z,201.24
2023-04-08T00:42:57.742Z,202.76
2023-04-08T00:43:57.797Z,203.39
2023-04-08T00:44:57.836Z,200.84
2023-04-08T00:45:57.930Z,198.35
2023-04-08T00:46:57.988Z,200.01
2023-04-08T00:47:58.104Z,195.53
2023-04-08T00:48:58.148Z,199.75
2023-04-08T00:49:58.150Z,205.22
2023-04-08T00:50:58.183Z,200.16
2023-04-08T00:51:58.232Z,203.76
2023-04-08T00:52:58.315Z,204.39
2023-04-08T00:53:58.326Z,203.10
2023-04-08T00:54:58.383Z,202.37
2023-04-08T00:55:58.433Z,202.89
2023-04-08T00:56:58.503Z,196.97
2023-04-08T00:57:58.621Z,202.26
2023-04-08T00:58:58.617Z,202.73
2023-04-08T00:59:58.679Z,203.11
2023-04-08T01:00:58.733Z,203.71
2023-04-08T01:01:58.812Z,204.52
2023-04-08T01:02:58.937Z,203.10
2023-04-08T01:03:58.932Z,202.69
2023-04-08T01:04:58.968Z,201.62
2023-04-08T01:05:59.020Z,198.69
2023-04-08T01:06:59.028Z,201.84
2023-04-08T01:07:59.124Z,202.14
2023-04-08T01:08:59.146Z,200.37
2023-04-08T01:09:59.248Z,202.48
2023-04-08T01:10:59.254Z,203.02
2023-04-08T01:11:59.350Z,203.62
2023-04-08T01:12:59.383Z,204.80
2023-04-08T01:13:59.475Z,204.12
2023-04-08T01:14:59.500Z,204.10
2023-04-08T01:15:59.639Z,204.95
2023-04-08T01:16:59.628Z,206.37
2023-04-08T01:17:59.776Z,206.07
2023-04-08T01:18:59.820Z,201.41
2023-04-08T01:19:59.836Z,203.24
2023-04-08T01:20:59.874Z,205.32
2023-04-08T01:21:59.944Z,205.33
2023-04-08T01:23:00.008Z,203.51
2023-04-08T01:24:00.110Z,203.52
2023-04-08T01:25:00.130Z,202.77
2023-04-08T01:26:00.202Z,201.82
2023-04-08T01:27:00.286Z,203.52
2023-04-08T01:28:00.313Z,203.33
2023-04-08T01:29:00.395Z,203.56
2023-04-08T01:30:00.475Z,201.91
2023-04-08T01:31:00.577Z,199.87
2023-04-08T01:32:00.530Z,201.10
2023-04-08T01:33:00.627Z,201.04
2023-04-08T01:34:00.694Z,201.11
2023-04-08T01:35:00.751Z,202.03
2023-04-08T01:36:00.860Z,203.11
2023-04-08T01:37:00.871Z,200.68
2023-04-08T01:38:00.908Z,203.09
2023-04-08T01:39:00.995Z,202.71
2023-04-08T01:40:00.996Z,198.43
2023-04-08T01:41:01.125Z,202.35
2023-04-08T01:42:01.174Z,201.78
2023-04-08T01:43:01.171Z,195.91
2023-04-08T01:44:01.264Z,198.63
2023-04-08T01:45:01.330Z,199.57
2023-04-08T01:46:01.387Z,201.86
2023-04-08T01:47:01.489Z,198.64
2023-04-08T01:48:01.576Z,203.88
2023-04-08T01:49:01.570Z,197.91
2023-04-08T01:50:01.683Z,201.73
2023-04-08T01:51:01.674Z,200.66
2023-04-08T01:52:01.753Z,199.03
2023-04-08T01:53:01.806Z,197.51
2023-04-08T01:54:01.891Z,202.00
2023-04-08T01:55:01.931Z,200.51
2023-04-08T01:56:01.953Z,200.92
2023-04-08T01:57:02.035Z,199.48
2023-04-08T01:58:02.070Z,200.73
2023-04-08T01:59:02.179Z,197.35
2023-04-08T02:00:02.223Z,196.91
2023-04-08T02:01:02.276Z,198.75
2023-04-08T02:02:02.376Z,199.26
2023-04-08T02:03:02.629Z,200.75
2023-04-08T02:04:02.506Z,199.31
2023-04-08T02:05:02.482Z,198.50
2023-04-08T02:06:02.561Z,197.65
2023-04-08T02:07:02.613Z,198.72
2023-04-08T02:08:02.644Z,198.00
2023-04-08T02:09:02.738Z,200.47
2023-04-08T02:10:02.798Z,203.03
2023-04-08T02:11:02.851Z,198.18
2023-04-08T02:12:02.873Z,196.44
2023-04-08T02:13:02.965Z,196.46
2023-04-08T02:14:03.034Z,194.24
2023-04-08T02:15:03.035Z,199.05
2023-04-08T02:16:03.133Z,199.02
2023-04-08T02:17:03.199Z,200.17
2023-04-08T02:18:03.236Z,195.36
2023-04-08T02:19:03.350Z,197.73
2023-04-08T02:20:03.405Z,196.67
2023-04-08T02:21:03.437Z,200.20
2023-04-08T02:22:03.488Z,200.12
2023-04-08T02:23:03.535Z,201.99
2023-04-08T02:24:03.989Z,197.69
2023-04-08T02:25:03.581Z,197.27
2023-04-08T02:26:03.673Z,198.36
2023-04-08T02:27:03.757Z,194.22
2023-04-08T02:28:03.798Z,198.26
2023-04-08T02:29:03.836Z,195.14
2023-04-08T02:30:03.865Z,200.25
2023-04-08T02:31:03.938Z,196.72
2023-04-08T02:32:03.974Z,198.06
2023-04-08T02:33:04.025Z,199.48
2023-04-08T02:34:04.030Z,195.95
2023-04-08T02:35:04.104Z,194.17
2023-04-08T02:36:04.101Z,195.87
2023-04-08T02:37:04.112Z,195.40
2023-04-08T02:38:04.143Z,195.51
2023-04-08T02:39:04.229Z,196.35
2023-04-08T02:40:04.268Z,195.61
2023-04-08T02:41:04.282Z,194.44
2023-04-08T02:42:04.347Z,195.75
2023-04-08T02:43:04.370Z,193.97
2023-04-08T02:44:04.399Z,192.40
2023-04-08T02:45:04.409Z,193.88
2023-04-08T02:46:04.667Z,193.75
2023-04-08T02:47:04.557Z,195.53
2023-04-08T02:48:04.576Z,194.88
2023-04-08T02:49:04.640Z,192.10
2023-04-08T02:50:04.717Z,192.43
2023-04-08T02:51:04.778Z,196.02
2023-04-08T02:52:04.825Z,198.22
2023-04-08T02:53:04.904Z,194.63
2023-04-08T02:54:05.020Z,195.94
2023-04-08T02:55:05.012Z,195.05
2023-04-08T02:56:05.046Z,195.66
2023-04-08T02:57:05.090Z,194.11
2023-04-08T02:58:05.161Z,190.72
2023-04-08T02:59:05.173Z,193.00
2023-04-08T03:00:05.186Z,193.42
2023-04-08T03:01:05.392Z,192.13
2023-04-08T03:02:05.372Z,194.55
2023-04-08T03:03:05.512Z,194.80
2023-04-08T03:04:05.444Z,196.76
2023-04-08T03:05:05.499Z,193.45
2023-04-08T03:06:05.538Z,193.51
2023-04-08T03:07:07.339Z,193.81
2023-04-08T03:08:05.551Z,194.58
2023-04-08T03:09:05.504Z,192.52
2023-04-08T03:10:05.515Z,193.14
2023-04-08T03:11:05.544Z,194.82
2023-04-08T03:12:05.544Z,191.50
2023-04-08T03:13:05.515Z,194.68
2023-04-08T03:14:05.485Z,192.07
2023-04-08T03:15:05.512Z,193.72
2023-04-08T03:16:05.566Z,193.77
2023-04-08T03:17:05.504Z,195.90
2023-04-08T03:18:05.512Z,192.38
2023-04-08T03:19:05.505Z,190.30
2023-04-08T03:20:05.451Z,191.30
2023-04-08T03:21:05.464Z,196.17
2023-04-08T03:22:05.449Z,194.82
2023-04-08T03:23:05.454Z,192.18
2023-04-08T03:24:05.405Z,191.22
2023-04-08T03:25:05.462Z,193.38
2023-04-08T03:26:05.397Z,187.42
2023-04-08T03:27:05.454Z,193.25
2023-04-08T03:28:05.423Z,192.01
2023-04-08T03:29:05.434Z,188.93
2023-04-08T03:30:05.384Z,189.82
2023-04-08T03:31:05.384Z,192.46
2023-04-08T03:32:05.520Z,190.50
2023-04-08T03:33:07.407Z,190.56
2023-04-08T03:34:05.374Z,192.34
2023-04-08T03:35:05.351Z,189.35
2023-04-08T03:36:05.449Z,191.05
2023-04-08T03:37:05.368Z,190.63
2023-04-08T03:38:05.337Z,195.46
2023-04-08T03:39:05.380Z,194.11
2023-04-08T03:40:05.431Z,189.51
2023-04-08T03:41:05.467Z,188.45
2023-04-08T03:42:05.472Z,190.42
2023-04-08T03:43:05.443Z,187.17
2023-04-08T03:44:05.445Z,190.88
2023-04-08T03:45:05.481Z,190.98
2023-04-08T03:46:05.516Z,193.32
2023-04-08T03:47:05.519Z,193.79
2023-04-08T03:48:05.598Z,187.32
2023-04-08T03:49:05.592Z,192.37
2023-04-08T03:50:05.626Z,189.31
2023-04-08T03:51:05.650Z,189.47
2023-04-08T03:52:05.673Z,192.18
2023-04-08T03:53:05.747Z,191.37
2023-04-08T03:54:05.820Z,190.90
2023-04-08T03:55:05.814Z,188.34
2023-04-08T03:56:05.860Z,192.41
2023-04-08T03:57:05.952Z,188.37
2023-04-08T03:58:05.981Z,188.97
2023-04-08T03:59:06.013Z,186.91
2023-04-08T04:00:06.030Z,188.32
2023-04-08T04:01:06.077Z,188.43
2023-04-08T04:02:06.210Z,186.78
2023-04-08T04:03:06.195Z,189.36
2023-04-08T04:04:06.265Z,189.22
2023-04-08T04:05:06.165Z,187.59
2023-04-08T04:06:06.208Z,186.85
2023-04-08T04:07:06.215Z,186.31
2023-04-08T04:08:06.330Z,187.33
2023-04-08T04:09:06.329Z,185.49
2023-04-08T04:10:06.303Z,189.23
2023-04-08T04:11:06.306Z,188.61
2023-04-08T04:12:06.390Z,187.08
2023-04-08T04:13:06.355Z,186.08
2023-04-08T04:14:06.361Z,186.35
2023-04-08T04:15:06.412Z,190.34
2023-04-08T04:16:06.498Z,183.66
2023-04-08T04:17:21.411Z,187.95
2023-04-08T04:18:06.551Z,188.58
2023-04-08T04:19:06.469Z,190.31
2023-04-08T04:20:06.484Z,191.08
2023-04-08T04:21:06.441Z,190.75
2023-04-08T04:22:06.472Z,192.56
2023-04-08T04:23:06.496Z,189.46
2023-04-08T04:24:06.480Z,192.89
2023-04-08T04:25:06.415Z,189.78
2023-04-08T04:26:06.445Z,189.16
2023-04-08T04:27:06.415Z,190.43
2023-04-08T04:28:06.434Z,192.34
2023-04-08T04:29:06.413Z,186.04
2023-04-08T04:30:06.416Z,186.34
2023-04-08T04:31:06.421Z,187.13
2023-04-08T04:32:06.377Z,188.36
2023-04-08T04:33:06.501Z,185.48
2023-04-08T04:34:06.398Z,185.51
2023-04-08T04:35:06.346Z,188.00
2023-04-08T04:36:06.381Z,189.12
2023-04-08T04:37:06.374Z,190.47
2023-04-08T04:38:06.339Z,184.44
2023-04-08T04:39:06.372Z,186.55
2023-04-08T04:40:06.319Z,185.82
2023-04-08T04:41:06.328Z,189.32
2023-04-08T04:42:06.348Z,190.16
2023-04-08T04:43:06.303Z,188.96
2023-04-08T04:44:06.294Z,186.71
2023-04-08T04:45:06.274Z,190.20
2023-04-08T04:46:06.430Z,190.25
2023-04-08T04:47:06.242Z,192.50
2023-04-08T04:48:06.305Z,189.98
2023-04-08T04:49:06.265Z,192.15
2023-04-08T04:50:06.304Z,188.59
2023-04-08T04:51:06.248Z,189.74
2023-04-08T04:52:06.243Z,187.70
2023-04-08T04:53:06.256Z,188.25
2023-04-08T04:54:06.231Z,187.86
2023-04-08T04:55:06.230Z,188.77
2023-04-08T04:56:06.211Z,188.67
2023-04-08T04:57:06.219Z,189.59
2023-04-08T04:58:06.201Z,187.57
2023-04-08T04:59:06.197Z,187.98
2023-04-08T05:00:06.165Z,186.84
2023-04-08T05:01:06.186Z,190.38
2023-04-08T05:02:06.276Z,184.55
2023-04-08T05:03:06.255Z,185.85
2023-04-08T05:04:06.161Z,184.89
2023-04-08T05:05:06.189Z,183.83
2023-04-08T05:06:06.148Z,182.25
2023-04-08T05:07:06.167Z,185.75
2023-04-08T05:08:06.111Z,184.94
2023-04-08T05:09:06.128Z,186.08
2023-04-08T05:10:06.127Z,184.99
2023-04-08T05:11:06.144Z,188.05
2023-04-08T05:12:06.149Z,183.40
2023-04-08T05:13:06.087Z,182.61
2023-04-08T05:14:06.171Z,185.31
2023-04-08T05:15:06.071Z,189.00
2023-04-08T05:16:06.106Z,186.35
2023-04-08T05:17:06.127Z,185.87
2023-04-08T05:18:06.152Z,185.69
2023-04-08T05:19:06.071Z,189.53
2023-04-08T05:20:06.084Z,185.62
2023-04-08T05:21:06.044Z,184.40
2023-04-08T05:22:06.060Z,185.68
2023-04-08T05:23:06.034Z,183.57
2023-04-08T05:24:06.047Z,181.41
2023-04-08T05:25:06.029Z,183.17
2023-04-08T05:26:06.012Z,184.42
2023-04-08T05:27:06.021Z,183.26
2023-04-08T05:28:06.026Z,182.31
2023-04-08T05:29:06.003Z,185.95
2023-04-08T05:30:06.095Z,184.32
2023-04-08T05:31:05.999Z,187.29
2023-04-08T05:32:05.972Z,181.55
2023-04-08T05:33:06.012Z,179.90
2023-04-08T05:34:05.969Z,179.22
2023-04-08T05:35:05.952Z,179.59
2023-04-08T05:36:06.011Z,184.17
2023-04-08T05:37:05.970Z,180.20
2023-04-08T05:38:05.971Z,181.24
2023-04-08T05:39:05.922Z,177.79
2023-04-08T05:40:05.932Z,178.25
2023-04-08T05:41:05.914Z,182.97
2023-04-08T05:42:05.907Z,177.91
2023-04-08T05:43:05.884Z,177.04
2023-04-08T05:44:05.910Z,177.89
2023-04-08T05:45:05.890Z,178.04
2023-04-08T05:46:05.877Z,179.61
2023-04-08T05:47:06.029Z,184.34
2023-04-08T05:48:05.913Z,183.36
2023-04-08T05:49:05.892Z,177.77
2023-04-08T05:50:05.836Z,181.75
2023-04-08T05:51:05.902Z,180.00
2023-04-08T05:52:05.823Z,179.07
2023-04-08T05:53:05.860Z,180.02
2023-04-08T05:54:05.867Z,176.40
2023-04-08T05:55:05.929Z,180.43
2023-04-08T05:56:05.800Z,181.38
2023-04-08T05:57:05.801Z,180.59
2023-04-08T05:58:05.782Z,177.95
2023-04-08T05:59:05.785Z,181.24
2023-04-08T06:00:05.869Z,178.22
2023-04-08T06:01:05.811Z,178.23
2023-04-08T06:02:05.903Z,179.85
2023-04-08T06:03:05.915Z,184.08
2023-04-08T06:04:05.950Z,178.96
2023-04-08T06:05:05.886Z,180.60
2023-04-08T06:06:05.728Z,180.82
2023-04-08T06:07:05.753Z,180.36
2023-04-08T06:08:05.700Z,180.98
2023-04-08T06:09:05.757Z,179.93
2023-04-08T06:10:05.719Z,179.55
2023-04-08T06:11:05.729Z,178.84
2023-04-08T06:12:05.706Z,178.41
2023-04-08T06:13:05.689Z,178.11
2023-04-08T06:14:05.677Z,179.32
2023-04-08T06:15:05.698Z,178.05
2023-04-08T06:16:05.738Z,177.39
2023-04-08T06:17:05.761Z,179.51
2023-04-08T06:18:05.698Z,182.64
2023-04-08T06:19:05.671Z,178.29
2023-04-08T06:20:05.644Z,176.87
2023-04-08T06:21:05.733Z,175.57
2023-04-08T06:22:05.799Z,177.27
2023-04-08T06:23:05.810Z,175.94
2023-04-08T06:24:05.906Z,175.07
2023-04-08T06:25:05.970Z,175.06
2023-04-08T06:26:06.027Z,178.85
2023-04-08T06:27:06.074Z,177.72
2023-04-08T06:28:06.142Z,178.42
2023-04-08T06:29:06.207Z,172.24
2023-04-08T06:30:06.269Z,174.82
2023-04-08T06:31:06.323Z,172.96
2023-04-08T06:32:06.508Z,174.67
2023-04-08T06:33:06.387Z,173.81
2023-04-08T06:34:06.398Z,170.83
2023-04-08T06:35:06.470Z,167.67
2023-04-08T06:36:06.586Z,167.44
2023-04-08T06:37:06.640Z,169.60
2023-04-08T06:38:06.561Z,168.95
2023-04-08T06:39:06.627Z,168.64
2023-04-08T06:40:06.701Z,169.35
2023-04-08T06:41:06.702Z,170.43
2023-04-08T06:42:06.736Z,169.47
2023-04-08T06:43:06.765Z,168.06
2023-04-08T06:44:06.769Z,166.51
2023-04-08T06:45:06.829Z,167.45
2023-04-08T06:46:06.968Z,167.85
2023-04-08T06:47:06.880Z,168.72
2023-04-08T06:49:25.729Z,25.00
2023-04-08T06:50:25.710Z,25.00
2023-04-08T06:51:25.710Z,25.00
2023-04-08T06:52:25.735Z,25.00
2023-04-08T06:53:25.659Z,25.00
2023-04-08T06:54:25.723Z,27.41
2023-04-08T06:55:25.672Z,25.34
2023-04-08T06:56:25.689Z,27.63
2023-04-08T06:57:25.643Z,26.54
2023-04-08T06:58:25.650Z,28.09
2023-04-08T06:59:25.665Z,25.13
2023-04-08T07:00:25.693Z,27.95
2023-04-08T07:01:25.696Z,25.45
2023-04-08T07:02:25.688Z,28.86
2023-04-08T07:03:25.751Z,25.80
2023-04-08T07:04:25.679Z,25.33
2023-04-08T07:05:25.624Z,27.48
2023-04-08T07:06:25.602Z,30.04
2023-04-08T07:07:25.608Z,25.88
2023-04-08T07:08:25.810Z,27.57
2023-04-08T07:09:25.571Z,29.28
2023-04-08T07:10:25.575Z,28.20
2023-04-08T07:11:25.587Z,26.89
2023-04-08T07:12:25.539Z,31.68
2023-04-08T07:13:25.536Z,29.61
2023-04-08T07:14:25.504Z,29.48
2023-04-08T07:15:25.570Z,30.31
2023-04-08T07:16:25.609Z,29.07
2023-04-08T07:17:25.556Z,31.42
2023-04-08T07:18:25.530Z,29.22
2023-04-08T07:19:26.406Z,28.00
2023-04-08T07:20:25.532Z,28.97
2023-04-08T07:21:25.499Z,28.77
2023-04-08T07:22:25.507Z,29.97
2023-04-08T07:23:25.525Z,29.74
2023-04-08T07:24:25.462Z,27.91
2023-04-08T07:25:25.473Z,29.50
2023-04-08T07:26:25.490Z,29.14
2023-04-08T07:27:25.498Z,28.91
2023-04-08T07:28:25.539Z,29.99
2023-04-08T07:29:25.657Z,29.12
2023-04-08T07:30:25.666Z,30.78
2023-04-08T07:31:25.887Z,27.92
2023-04-08T07:32:25.899Z,30.17
2023-04-08T07:33:25.828Z,27.45
2023-04-08T07:34:25.947Z,29.56
2023-04-08T07:35:25.985Z,27.56
2023-04-08T07:36:26.061Z,28.72
2023-04-08T07:37:26.116Z,28.02
2023-04-08T07:38:26.183Z,30.69
2023-04-08T07:39:26.196Z,29.98
2023-04-08T07:40:26.294Z,31.00
2023-04-08T07:41:26.348Z,33.20
2023-04-08T07:42:26.407Z,29.87
2023-04-08T07:43:26.429Z,32.37
2023-04-08T07:44:26.529Z,31.24
2023-04-08T07:45:26.585Z,31.13
2023-04-08T07:46:26.654Z,28.87
2023-04-08T07:47:26.728Z,30.18
2023-04-08T07:48:26.745Z,31.28
2023-04-08T07:49:26.814Z,28.99
2023-04-08T07:50:26.888Z,28.08
2023-04-08T07:51:26.936Z,27.39
2023-04-08T07:52:26.994Z,28.39
2023-04-08T07:53:27.044Z,28.82
2023-04-08T07:54:27.104Z,29.03
2023-04-08T07:55:27.183Z,29.08
2023-04-08T07:56:27.327Z,27.80
2023-04-08T07:57:27.292Z,27.75
2023-04-08T07:58:27.454Z,27.48
2023-04-08T07:59:27.383Z,27.35
2023-04-08T08:00:27.452Z,29.83
2023-04-08T08:01:27.562Z,30.84
2023-04-08T08:02:27.773Z,28.60
2023-04-08T08:03:27.757Z,31.35
2023-04-08T08:04:27.907Z,30.67
2023-04-08T08:05:27.738Z,29.75
2023-04-08T08:06:27.854Z,30.72
2023-04-08T08:07:27.903Z,30.09
2023-04-08T08:08:27.965Z,28.87
2023-04-08T08:09:28.666Z,31.45
2023-04-08T08:10:28.079Z,29.66
2023-04-08T08:11:28.153Z,27.13
2023-04-08T08:12:28.195Z,31.03
2023-04-08T08:13:28.222Z,30.52
2023-04-08T08:14:28.260Z,29.58
2023-04-08T08:15:28.337Z,29.55
2023-04-08T08:16:28.562Z,28.35
2023-04-08T08:17:28.460Z,30.26
2023-04-08T08:18:28.498Z,30.91
2023-04-08T08:19:28.562Z,33.05
2023-04-08T08:20:28.630Z,28.51
2023-04-08T08:21:28.632Z,29.01
2023-04-08T08:22:28.722Z,29.32
2023-04-08T08:23:28.730Z,28.99
2023-04-08T08:24:28.799Z,30.91
2023-04-08T08:25:28.912Z,28.70
2023-04-08T08:26:28.895Z,29.12
2023-04-08T08:27:28.972Z,27.53
2023-04-08T08:28:28.968Z,28.48
2023-04-08T08:29:29.011Z,28.76
2023-04-08T08:30:29.108Z,29.50
2023-04-08T08:31:29.116Z,29.14
2023-04-08T08:32:29.167Z,29.36
2023-04-08T08:33:29.185Z,29.79
2023-04-08T08:34:29.207Z,30.81
2023-04-08T08:35:29.282Z,33.84
2023-04-08T08:36:29.350Z,33.55
2023-04-08T08:37:29.398Z,33.20
2023-04-08T08:38:29.404Z,33.97
2023-04-08T08:39:29.435Z,33.78
2023-04-08T08:40:29.523Z,32.26
2023-04-08T08:41:29.541Z,29.65
2023-04-08T08:42:29.531Z,32.35
2023-04-08T08:43:29.598Z,34.38
2023-04-08T08:44:29.588Z,32.13
2023-04-08T08:45:29.665Z,33.69
2023-04-08T08:46:29.675Z,35.69
2023-04-08T08:47:29.698Z,34.97
2023-04-08T08:48:29.736Z,35.11
2023-04-08T08:49:29.784Z,36.32
2023-04-08T08:50:29.799Z,35.92
2023-04-08T08:51:29.845Z,35.46
2023-04-08T08:52:29.850Z,32.73
2023-04-08T08:53:29.882Z,35.52
2023-04-08T08:54:29.927Z,34.80
2023-04-08T08:55:44.807Z,35.48
2023-04-08T08:56:30.904Z,35.72
2023-04-08T08:57:29.931Z,35.63
2023-04-08T08:58:29.887Z,35.94
2023-04-08T08:59:29.905Z,38.84
2023-04-08T09:00:29.918Z,38.08
2023-04-08T09:01:29.905Z,39.77
2023-04-08T09:02:30.086Z,38.49
2023-04-08T09:03:30.242Z,40.06
2023-04-08T09:04:29.940Z,37.52
2023-04-08T09:05:30.167Z,38.22
2023-04-08T09:06:29.896Z,41.98
2023-04-08T09:07:29.881Z,36.19
2023-04-08T09:08:29.861Z,41.25
2023-04-08T09:09:29.866Z,40.54
2023-04-08T09:10:29.839Z,40.36
2023-04-08T09:11:29.834Z,38.45
2023-04-08T09:12:29.799Z,40.50
2023-04-08T09:13:29.852Z,38.14
2023-04-08T09:14:29.797Z,36.47
2023-04-08T09:15:29.795Z,40.48
2023-04-08T09:16:29.796Z,40.16
2023-04-08T09:17:29.832Z,41.64
2023-04-08T09:18:29.791Z,38.96
2023-04-08T09:19:29.751Z,41.22
2023-04-08T09:20:29.766Z,44.25
2023-04-08T09:21:29.775Z,36.52
2023-04-08T09:22:29.815Z,40.87
2023-04-08T09:23:29.813Z,42.55
2023-04-08T09:24:29.871Z,41.21
2023-04-08T09:25:29.847Z,39.78
2023-04-08T09:26:29.875Z,39.15
2023-04-08T09:27:29.923Z,37.67
2023-04-08T09:28:29.893Z,40.35
2023-04-08T09:29:33.379Z,38.73
2023-04-08T09:30:30.075Z,38.97
2023-04-08T09:31:30.010Z,39.03
2023-04-08T09:32:29.961Z,39.15
2023-04-08T09:33:29.887Z,40.96
2023-04-08T09:34:29.857Z,38.71
2023-04-08T09:35:29.933Z,40.94
2023-04-08T09:36:29.841Z,40.44
2023-04-08T09:37:29.850Z,41.51
2023-04-08T09:38:29.813Z,41.54
2023-04-08T09:39:29.862Z,40.91
2023-04-08T09:40:29.808Z,39.61
2023-04-08T09:41:29.853Z,40.73
2023-04-08T09:42:29.774Z,41.08
2023-04-08T09:43:29.801Z,37.83
2023-04-08T09:44:29.803Z,41.72
2023-04-08T09:45:29.897Z,37.82
2023-04-08T09:46:29.813Z,39.25
2023-04-08T09:47:29.765Z,38.70
2023-04-08T09:48:29.811Z,40.30
2023-04-08T09:49:29.770Z,41.86
2023-04-08T09:50:29.755Z,37.81
2023-04-08T09:51:29.771Z,36.35
2023-04-08T09:52:29.749Z,42.20
2023-04-08T09:53:29.753Z,40.05
2023-04-08T09:54:29.785Z,40.83
2023-04-08T09:55:29.700Z,39.69
2023-04-08T09:56:29.744Z,39.12
2023-04-08T09:57:29.752Z,39.00
2023-04-08T09:58:29.680Z,40.90
2023-04-08T09:59:29.717Z,41.72
2023-04-08T10:00:29.703Z,42.44
2023-04-08T10:01:29.905Z,41.35
2023-04-08T10:02:29.831Z,40.44
2023-04-08T10:03:29.836Z,41.89
2023-04-08T10:04:29.734Z,41.51
2023-04-08T10:05:29.648Z,43.15
2023-04-08T10:06:29.666Z,48.92
2023-04-08T10:07:29.610Z,43.80
2023-04-08T10:08:29.615Z,47.80
2023-04-08T10:09:29.612Z,44.06
2023-04-08T10:10:29.597Z,43.37
2023-04-08T10:11:29.640Z,44.22
2023-04-08T10:12:29.642Z,40.04
2023-04-08T10:13:29.620Z,43.63
2023-04-08T10:14:29.565Z,46.17
2023-04-08T10:15:29.563Z,48.52
2023-04-08T10:16:29.600Z,45.49
2023-04-08T10:17:29.585Z,43.41
2023-04-08T10:18:29.572Z,46.83
2023-04-08T10:20:57.962Z,25.00
2023-04-08T10:21:58.020Z,25.00
2023-04-08T10:22:58.047Z,25.00
2023-04-08T10:23:58.109Z,25.00
2023-04-08T10:24:58.095Z,25.00
2023-04-08T10:25:58.281Z,25.00
2023-04-08T10:26:58.167Z,26.48
2023-04-08T10:27:58.185Z,26.10
2023-04-08T10:28:58.112Z,26.06
2023-04-08T10:29:58.132Z,25.92
2023-04-08T10:30:58.152Z,25.54
2023-04-08T10:31:58.200Z,25.00
2023-04-08T10:32:58.250Z,25.57
2023-04-08T10:33:58.195Z,25.94
2023-04-08T10:34:58.215Z,25.17
2023-04-08T10:35:58.244Z,26.91
2023-04-08T10:36:58.167Z,26.34
2023-04-08T10:37:58.215Z,25.89
2023-04-08T10:38:58.229Z,28.02
2023-04-08T10:39:58.235Z,26.52
2023-04-08T10:40:58.313Z,26.04
2023-04-08T10:41:58.243Z,25.09
2023-04-08T10:42:58.273Z,28.38
2023-04-08T10:43:58.273Z,31.29
2023-04-08T10:44:58.289Z,27.82
2023-04-08T10:45:58.377Z,31.33
2023-04-08T10:46:58.326Z,28.96
2023-04-08T10:47:58.420Z,28.53
2023-04-08T10:48:58.350Z,30.29
2023-04-08T10:49:58.393Z,26.97
2023-04-08T10:50:58.357Z,26.92
2023-04-08T10:51:58.402Z,27.53
2023-04-08T10:52:58.415Z,27.07
2023-04-08T10:53:58.436Z,30.51
2023-04-08T10:54:58.434Z,31.26
2023-04-08T10:55:58.436Z,31.33
2023-04-08T10:56:58.516Z,30.42
2023-04-08T10:57:58.520Z,28.08
2023-04-08T10:58:58.525Z,29.89
2023-04-08T10:59:58.499Z,28.55
2023-04-08T11:00:58.571Z,30.13
2023-04-08T11:01:58.908Z,30.57
2023-04-08T11:02:58.692Z,30.84
2023-04-08T11:03:58.674Z,29.22
2023-04-08T11:04:58.598Z,27.71
2023-04-08T11:05:58.614Z,26.55
2023-04-08T11:06:58.649Z,26.32
2023-04-08T11:07:58.657Z,26.94
2023-04-08T11:08:58.700Z,30.20
2023-04-08T11:09:58.709Z,25.70
2023-04-08T11:10:58.713Z,25.00
2023-04-08T11:11:58.827Z,29.98
2023-04-08T11:12:58.762Z,29.23
2023-04-08T11:13:59.082Z,29.94
2023-04-08T11:14:58.777Z,31.10
2023-04-08T11:15:58.867Z,30.72
2023-04-08T11:16:58.892Z,30.14
2023-04-08T11:17:58.856Z,27.07
2023-04-08T11:18:58.864Z,26.37
2023-04-08T11:19:58.871Z,30.51
2023-04-08T11:21:00.182Z,26.98
2023-04-08T11:21:58.947Z,28.01
2023-04-08T11:22:58.949Z,26.37
2023-04-08T11:23:58.932Z,26.73
2023-04-08T11:24:58.962Z,30.61
2023-04-08T11:25:58.940Z,32.02
2023-04-08T11:26:58.963Z,30.38
2023-04-08T11:27:58.929Z,30.09
2023-04-08T11:28:58.967Z,31.09
2023-04-08T11:29:58.977Z,31.19
2023-04-08T11:30:59.032Z,29.13
2023-04-08T11:31:58.999Z,31.20
2023-04-08T11:32:59.120Z,29.47
2023-04-08T11:33:59.020Z,32.07
2023-04-08T11:34:59.079Z,31.71
2023-04-08T11:35:59.137Z,33.83
2023-04-08T11:36:59.112Z,32.20
2023-04-08T11:37:59.103Z,34.48
2023-04-08T11:38:59.109Z,31.17
2023-04-08T11:39:59.116Z,28.68
2023-04-08T11:40:59.193Z,31.40
2023-04-08T11:41:59.157Z,29.69
2023-04-08T11:42:59.160Z,32.09
2023-04-08T11:43:59.138Z,30.68
2023-04-08T11:44:59.180Z,33.05
2023-04-08T11:45:59.208Z,31.34
2023-04-08T11:46:59.162Z,30.95
2023-04-08T11:47:59.250Z,34.22
2023-04-08T11:48:59.177Z,31.89
2023-04-08T11:49:59.178Z,27.84
2023-04-08T11:50:59.219Z,30.66
2023-04-08T11:51:59.230Z,31.68
2023-04-08T11:52:59.303Z,30.44
2023-04-08T11:53:59.253Z,31.37
2023-04-08T11:54:59.265Z,31.84
2023-04-08T11:55:59.272Z,32.51
2023-04-08T11:56:59.260Z,27.56
2023-04-08T11:57:59.272Z,30.67
2023-04-08T11:58:59.326Z,31.94
2023-04-08T11:59:59.274Z,29.14
2023-04-08T12:00:59.312Z,29.09
2023-04-08T12:01:59.417Z,32.27
2023-04-08T12:02:59.485Z,30.91
2023-04-08T12:03:59.530Z,33.04
2023-04-08T12:04:59.385Z,31.93
2023-04-08T12:05:59.391Z,32.04
2023-04-08T12:06:59.428Z,32.31
2023-04-08T12:07:59.410Z,30.56
2023-04-08T12:08:59.459Z,31.32
2023-04-08T12:09:59.424Z,32.62
2023-04-08T12:11:09.316Z,32.09
2023-04-08T12:12:00.433Z,32.22
2023-04-08T12:12:59.455Z,32.55
2023-04-08T12:13:59.415Z,31.46
2023-04-08T12:14:59.423Z,33.35
2023-04-08T12:15:59.434Z,25.90
2023-04-08T12:16:59.400Z,32.34
2023-04-08T12:17:59.405Z,29.15
2023-04-08T12:18:59.411Z,34.18
2023-04-08T12:19:59.434Z,34.69
2023-04-08T12:20:59.388Z,32.08
2023-04-08T12:21:59.372Z,30.03
2023-04-08T12:22:59.334Z,29.69
2023-04-08T12:23:59.361Z,29.23
2023-04-08T12:24:59.526Z,29.70
2023-04-08T12:25:59.374Z,29.17
2023-04-08T12:26:59.487Z,28.98
2023-04-08T12:27:59.306Z,29.56
2023-04-08T12:28:59.381Z,31.14
2023-04-08T12:29:59.353Z,31.10
2023-04-08T12:30:59.296Z,33.58
2023-04-08T12:31:59.468Z,31.36
2023-04-08T12:32:59.465Z,26.03
2023-04-08T12:33:59.315Z,30.53
2023-04-08T12:34:59.315Z,29.38
2023-04-08T12:35:59.394Z,32.25
2023-04-08T12:36:59.304Z,29.96
2023-04-08T12:37:59.235Z,27.87
2023-04-08T12:38:59.248Z,29.45
2023-04-08T12:39:59.330Z,29.72
2023-04-08T12:40:59.225Z,30.13
2023-04-08T12:41:59.279Z,30.49
2023-04-08T12:42:59.270Z,29.08